Flight Track Log - Related Links

Times and Time Zones

All times are in EDT time to prevent confusion due to time zone crossing. See the FLG4081 flight status page for this flight to view local times or setup timezone preferences in your user account.

Time Position Orientation Groundspeed Altitude Reporting Facility
EDT Latitude Longitude Course Direction KTS MPH feet Rate Location/Type
Mon 09:48:56 PM 42.2036 -83.3556 270° West 154 177 1,400  Level Cleveland Center
Mon 09:49:32 PM 42.1864 -83.3800 226° Southwest 176 203 2,600 2,103 Climbing Cleveland Center
Mon 09:50:33 PM 42.1475 -83.4397 229° Southwest 240 276 4,800 2,361 Climbing Cleveland Center
Mon 09:51:34 PM 42.1203 -83.5225 246° West 283 326 7,400 2,852 Climbing Cleveland Center
Mon 09:52:00 PM 42.2474 -84.0804 276° West  Level FlightAware Approximate
Mon 09:52:35 PM 42.1428 -83.6189 288° West 273 314 10,600  Level Cleveland Center
Mon 09:53:00 PM 42.2500 -84.2642 270° West  Level FlightAware Approximate
Mon 09:53:10 PM 42.1578 -83.6839 287° West 302 348 11,700  Level Cleveland Center
Mon 09:54:00 PM 42.2500 -84.4481 270° West  Level FlightAware Approximate
Mon 09:54:10 PM 42.1836 -83.8031 286° West 325 374 12,000  Level Cleveland Center
Mon 09:55:10 PM 42.2111 -83.9361 286° West 348 400 12,000 50 Level Cleveland Center
Mon 09:56:09 PM 42.2367 -84.0639 285° West 359 413 12,100 -250 Climbing Cleveland Center
Mon 09:57:10 PM 42.2597 -84.1914 284° West 359 413 11,500 -700 Descending Cleveland Center
Mon 09:59:09 PM 42.2575 -84.4522 269° West 353 406 10,000 -500 Descending Cleveland Center
Mon 10:00:10 PM 42.2553 -84.5756 269° West 348 400 10,000 50 Level Cleveland Center
Mon 10:01:10 PM 42.2597 -84.6881 273° West 337 388 10,100  Climbing Cleveland Center
Mon 10:02:10 PM 42.2575 -84.8086 269° West 332 382 10,000 -50 Descending Cleveland Center
Mon 10:03:10 PM 42.2550 -84.9264 268° West 326 375 10,000 -300 Level Cleveland Center
Mon 10:04:10 PM 42.2656 -85.0367 277° West 314 361 9,400 -1,300 Descending Cleveland Center
Mon 10:05:10 PM 42.2764 -85.1300 279° West 285 328 7,400 -2,000 Descending Cleveland Center
Mon 10:06:10 PM 42.2892 -85.2264 280° West 270 311 5,400 -1,351 Descending Cleveland Center
Mon 10:07:41 PM 42.3094 -85.3561 282° West 254 292 4,000 -987 Descending Chicago Center
Mon 10:08:42 PM 42.3381 -85.4350 296° West 205 236 2,900 -1,082 Descending Chicago Center

Login

Don't have an account? Register now (free) for customized features, flight alerts, and more!